sensor_id;sensor_type;location;lat;lon;timestamp;P1;durP1;ratioP1;P2;durP2;ratioP2
7495;SDS011;3789;47.064;15.482;2022-11-25T00:02:20;9.80;;;8.03;;
7495;SDS011;3789;47.064;15.482;2022-11-25T00:04:49;11.83;;;7.80;;
7495;SDS011;3789;47.064;15.482;2022-11-25T00:07:37;10.77;;;8.03;;
7495;SDS011;3789;47.064;15.482;2022-11-25T00:10:06;8.30;;;7.03;;
7495;SDS011;3789;47.064;15.482;2022-11-25T00:12:37;9.17;;;7.67;;
7495;SDS011;3789;47.064;15.482;2022-11-25T00:15:05;9.43;;;7.17;;
7495;SDS011;3789;47.064;15.482;2022-11-25T00:17:36;7.93;;;6.63;;
7495;SDS011;3789;47.064;15.482;2022-11-25T00:20:03;13.03;;;7.17;;
7495;SDS011;3789;47.064;15.482;2022-11-25T00:22:37;9.23;;;6.13;;
7495;SDS011;3789;47.064;15.482;2022-11-25T00:25:09;7.77;;;5.90;;
7495;SDS011;3789;47.064;15.482;2022-11-25T00:27:40;7.77;;;5.90;;
7495;SDS011;3789;47.064;15.482;2022-11-25T00:30:16;5.93;;;5.33;;
7495;SDS011;3789;47.064;15.482;2022-11-25T00:32:48;6.50;;;5.87;;
7495;SDS011;3789;47.064;15.482;2022-11-25T00:35:15;6.30;;;5.57;;
7495;SDS011;3789;47.064;15.482;2022-11-25T00:37:43;5.07;;;4.57;;
7495;SDS011;3789;47.064;15.482;2022-11-25T00:40:11;6.83;;;5.10;;
7495;SDS011;3789;47.064;15.482;2022-11-25T00:42:42;4.97;;;4.33;;
7495;SDS011;3789;47.064;15.482;2022-11-25T00:45:29;8.40;;;4.67;;
7495;SDS011;3789;47.064;15.482;2022-11-25T00:47:59;7.43;;;5.07;;
7495;SDS011;3789;47.064;15.482;2022-11-25T00:50:29;6.93;;;5.80;;
7495;SDS011;3789;47.064;15.482;2022-11-25T00:52:59;7.50;;;6.57;;
7495;SDS011;3789;47.064;15.482;2022-11-25T00:55:29;7.70;;;5.53;;
7495;SDS011;3789;47.064;15.482;2022-11-25T00:58:23;10.20;;;7.17;;
7495;SDS011;3789;47.064;15.482;2022-11-25T01:00:54;10.13;;;6.63;;
7495;SDS011;3789;47.064;15.482;2022-11-25T01:03:35;10.07;;;7.87;;
7495;SDS011;3789;47.064;15.482;2022-11-25T01:09:13;10.23;;;7.17;;
7495;SDS011;3789;47.064;15.482;2022-11-25T01:11:43;13.57;;;8.03;;
7495;SDS011;3789;47.064;15.482;2022-11-25T01:14:12;5.40;;;4.30;;
7495;SDS011;3789;47.064;15.482;2022-11-25T01:16:39;8.43;;;5.80;;
7495;SDS011;3789;47.064;15.482;2022-11-25T01:19:10;9.47;;;5.50;;
7495;SDS011;3789;47.064;15.482;2022-11-25T01:21:47;5.97;;;5.37;;
7495;SDS011;3789;47.064;15.482;2022-11-25T01:24:17;5.70;;;5.10;;
7495;SDS011;3789;47.064;15.482;2022-11-25T01:26:44;5.00;;;4.50;;
7495;SDS011;3789;47.064;15.482;2022-11-25T01:29:16;6.23;;;4.03;;
7495;SDS011;3789;47.064;15.482;2022-11-25T01:31:45;3.13;;;2.73;;
7495;SDS011;3789;47.064;15.482;2022-11-25T01:34:18;5.60;;;3.10;;
7495;SDS011;3789;47.064;15.482;2022-11-25T01:37:02;4.47;;;2.73;;
7495;SDS011;3789;47.064;15.482;2022-11-25T01:39:32;5.47;;;3.40;;
7495;SDS011;3789;47.064;15.482;2022-11-25T01:42:01;6.10;;;4.13;;
7495;SDS011;3789;47.064;15.482;2022-11-25T01:44:31;4.50;;;3.00;;
7495;SDS011;3789;47.064;15.482;2022-11-25T01:47:20;4.10;;;3.33;;
7495;SDS011;3789;47.064;15.482;2022-11-25T01:50:08;4.03;;;3.63;;
7495;SDS011;3789;47.064;15.482;2022-11-25T01:52:49;4.43;;;3.70;;
7495;SDS011;3789;47.064;15.482;2022-11-25T01:55:32;8.50;;;5.40;;
7495;SDS011;3789;47.064;15.482;2022-11-25T01:58:11;6.00;;;4.70;;
7495;SDS011;3789;47.064;15.482;2022-11-25T02:00:45;6.43;;;4.90;;
7495;SDS011;3789;47.064;15.482;2022-11-25T02:03:36;8.17;;;5.10;;
7495;SDS011;3789;47.064;15.482;2022-11-25T02:06:24;6.77;;;5.60;;
7495;SDS011;3789;47.064;15.482;2022-11-25T02:09:09;8.20;;;4.73;;
7495;SDS011;3789;47.064;15.482;2022-11-25T02:11:39;7.50;;;5.43;;
7495;SDS011;3789;47.064;15.482;2022-11-25T02:14:13;7.30;;;4.63;;
7495;SDS011;3789;47.064;15.482;2022-11-25T02:16:44;4.67;;;3.97;;
7495;SDS011;3789;47.064;15.482;2022-11-25T02:19:21;4.60;;;3.70;;
7495;SDS011;3789;47.064;15.482;2022-11-25T02:22:18;7.80;;;4.93;;
7495;SDS011;3789;47.064;15.482;2022-11-25T02:28:08;9.00;;;6.10;;
7495;SDS011;3789;47.064;15.482;2022-11-25T02:30:43;6.37;;;5.37;;
7495;SDS011;3789;47.064;15.482;2022-11-25T02:33:21;6.63;;;4.77;;
7495;SDS011;3789;47.064;15.482;2022-11-25T02:35:49;5.17;;;4.67;;
7495;SDS011;3789;47.064;15.482;2022-11-25T02:38:42;7.53;;;6.00;;
7495;SDS011;3789;47.064;15.482;2022-11-25T02:43:44;8.93;;;6.27;;
7495;SDS011;3789;47.064;15.482;2022-11-25T02:46:16;8.27;;;5.43;;
7495;SDS011;3789;47.064;15.482;2022-11-25T02:48:48;8.10;;;5.80;;
7495;SDS011;3789;47.064;15.482;2022-11-25T02:51:37;3.33;;;2.60;;
7495;SDS011;3789;47.064;15.482;2022-11-25T02:54:06;3.33;;;3.03;;
7495;SDS011;3789;47.064;15.482;2022-11-25T02:56:33;4.13;;;3.23;;
7495;SDS011;3789;47.064;15.482;2022-11-25T02:59:02;4.67;;;4.17;;
7495;SDS011;3789;47.064;15.482;2022-11-25T03:01:30;4.53;;;3.67;;
7495;SDS011;3789;47.064;15.482;2022-11-25T03:03:58;2.93;;;2.63;;
7495;SDS011;3789;47.064;15.482;2022-11-25T03:06:26;2.07;;;1.87;;
7495;SDS011;3789;47.064;15.482;2022-11-25T03:08:54;2.57;;;2.37;;
7495;SDS011;3789;47.064;15.482;2022-11-25T03:11:21;2.93;;;2.53;;
7495;SDS011;3789;47.064;15.482;2022-11-25T03:14:20;2.60;;;2.40;;
7495;SDS011;3789;47.064;15.482;2022-11-25T03:16:50;3.47;;;2.40;;
7495;SDS011;3789;47.064;15.482;2022-11-25T03:19:18;2.60;;;2.40;;
7495;SDS011;3789;47.064;15.482;2022-11-25T03:21:45;2.77;;;2.30;;
7495;SDS011;3789;47.064;15.482;2022-11-25T03:24:12;2.57;;;2.37;;
7495;SDS011;3789;47.064;15.482;2022-11-25T03:26:39;2.00;;;1.80;;
7495;SDS011;3789;47.064;15.482;2022-11-25T03:29:06;2.30;;;2.10;;
7495;SDS011;3789;47.064;15.482;2022-11-25T03:31:33;2.80;;;2.00;;
7495;SDS011;3789;47.064;15.482;2022-11-25T03:34:00;1.80;;;1.70;;
7495;SDS011;3789;47.064;15.482;2022-11-25T03:36:27;4.07;;;2.20;;
7495;SDS011;3789;47.064;15.482;2022-11-25T03:38:54;2.63;;;2.20;;
7495;SDS011;3789;47.064;15.482;2022-11-25T03:41:21;3.33;;;2.40;;
7495;SDS011;3789;47.064;15.482;2022-11-25T03:43:48;2.47;;;2.27;;
7495;SDS011;3789;47.064;15.482;2022-11-25T03:46:15;2.97;;;2.30;;
7495;SDS011;3789;47.064;15.482;2022-11-25T03:48:42;2.77;;;2.57;;
7495;SDS011;3789;47.064;15.482;2022-11-25T03:51:09;2.47;;;2.27;;
7495;SDS011;3789;47.064;15.482;2022-11-25T03:53:37;2.60;;;2.40;;
7495;SDS011;3789;47.064;15.482;2022-11-25T03:56:04;1.90;;;1.67;;
7495;SDS011;3789;47.064;15.482;2022-11-25T03:58:31;1.70;;;1.60;;
7495;SDS011;3789;47.064;15.482;2022-11-25T04:00:59;5.30;;;1.80;;
7495;SDS011;3789;47.064;15.482;2022-11-25T04:03:27;2.20;;;2.00;;
7495;SDS011;3789;47.064;15.482;2022-11-25T04:05:55;1.90;;;1.80;;
7495;SDS011;3789;47.064;15.482;2022-11-25T04:08:22;2.00;;;1.90;;
7495;SDS011;3789;47.064;15.482;2022-11-25T04:10:49;1.97;;;1.80;;
7495;SDS011;3789;47.064;15.482;2022-11-25T04:13:17;2.53;;;2.13;;
7495;SDS011;3789;47.064;15.482;2022-11-25T04:15:44;2.97;;;2.10;;
7495;SDS011;3789;47.064;15.482;2022-11-25T04:18:13;2.37;;;2.17;;
7495;SDS011;3789;47.064;15.482;2022-11-25T04:20:41;2.50;;;2.07;;
7495;SDS011;3789;47.064;15.482;2022-11-25T04:23:08;2.40;;;1.70;;
7495;SDS011;3789;47.064;15.482;2022-11-25T04:25:37;4.10;;;1.70;;
7495;SDS011;3789;47.064;15.482;2022-11-25T04:28:04;1.90;;;1.80;;
7495;SDS011;3789;47.064;15.482;2022-11-25T04:30:32;2.83;;;2.00;;
7495;SDS011;3789;47.064;15.482;2022-11-25T04:33:00;1.70;;;1.60;;
7495;SDS011;3789;47.064;15.482;2022-11-25T04:35:27;2.00;;;1.60;;
7495;SDS011;3789;47.064;15.482;2022-11-25T04:37:54;1.70;;;1.60;;
7495;SDS011;3789;47.064;15.482;2022-11-25T04:40:21;2.50;;;1.97;;
7495;SDS011;3789;47.064;15.482;2022-11-25T04:42:48;3.40;;;2.47;;
7495;SDS011;3789;47.064;15.482;2022-11-25T04:45:16;4.37;;;2.37;;
7495;SDS011;3789;47.064;15.482;2022-11-25T04:47:49;2.43;;;2.20;;
7495;SDS011;3789;47.064;15.482;2022-11-25T04:50:18;2.33;;;1.77;;
7495;SDS011;3789;47.064;15.482;2022-11-25T04:52:47;2.30;;;2.10;;
7495;SDS011;3789;47.064;15.482;2022-11-25T04:55:15;2.20;;;2.00;;
7495;SDS011;3789;47.064;15.482;2022-11-25T04:57:42;3.07;;;2.00;;
7495;SDS011;3789;47.064;15.482;2022-11-25T05:00:09;1.90;;;1.80;;
7495;SDS011;3789;47.064;15.482;2022-11-25T05:02:37;1.87;;;1.77;;
7495;SDS011;3789;47.064;15.482;2022-11-25T05:05:04;2.07;;;1.87;;
7495;SDS011;3789;47.064;15.482;2022-11-25T05:07:32;2.10;;;1.90;;
7495;SDS011;3789;47.064;15.482;2022-11-25T05:09:59;4.07;;;2.33;;
7495;SDS011;3789;47.064;15.482;2022-11-25T05:12:27;3.43;;;2.53;;
7495;SDS011;3789;47.064;15.482;2022-11-25T05:14:55;2.10;;;2.00;;
7495;SDS011;3789;47.064;15.482;2022-11-25T05:17:23;2.40;;;2.30;;
7495;SDS011;3789;47.064;15.482;2022-11-25T05:19:52;2.40;;;2.20;;
7495;SDS011;3789;47.064;15.482;2022-11-25T05:22:21;2.20;;;2.10;;
7495;SDS011;3789;47.064;15.482;2022-11-25T05:24:50;2.87;;;2.50;;
7495;SDS011;3789;47.064;15.482;2022-11-25T05:27:18;2.50;;;2.30;;
7495;SDS011;3789;47.064;15.482;2022-11-25T05:29:45;2.83;;;2.40;;
7495;SDS011;3789;47.064;15.482;2022-11-25T05:32:21;4.33;;;3.60;;
7495;SDS011;3789;47.064;15.482;2022-11-25T05:34:48;4.63;;;4.30;;
7495;SDS011;3789;47.064;15.482;2022-11-25T05:37:15;6.67;;;4.90;;
7495;SDS011;3789;47.064;15.482;2022-11-25T05:39:49;7.93;;;5.97;;
7495;SDS011;3789;47.064;15.482;2022-11-25T05:42:16;7.40;;;6.57;;
7495;SDS011;3789;47.064;15.482;2022-11-25T05:44:43;10.33;;;7.53;;
7495;SDS011;3789;47.064;15.482;2022-11-25T05:47:10;7.70;;;6.87;;
7495;SDS011;3789;47.064;15.482;2022-11-25T05:49:38;7.57;;;6.70;;
7495;SDS011;3789;47.064;15.482;2022-11-25T05:52:05;9.83;;;7.30;;
7495;SDS011;3789;47.064;15.482;2022-11-25T05:54:32;10.20;;;7.17;;
7495;SDS011;3789;47.064;15.482;2022-11-25T05:56:59;10.23;;;6.03;;
7495;SDS011;3789;47.064;15.482;2022-11-25T05:59:27;10.00;;;8.50;;
7495;SDS011;3789;47.064;15.482;2022-11-25T06:01:54;10.03;;;8.20;;
7495;SDS011;3789;47.064;15.482;2022-11-25T06:04:21;14.03;;;9.80;;
7495;SDS011;3789;47.064;15.482;2022-11-25T06:06:48;11.97;;;9.47;;
7495;SDS011;3789;47.064;15.482;2022-11-25T06:09:15;12.03;;;9.07;;
7495;SDS011;3789;47.064;15.482;2022-11-25T06:11:42;15.27;;;9.03;;
7495;SDS011;3789;47.064;15.482;2022-11-25T06:14:09;10.60;;;8.57;;
7495;SDS011;3789;47.064;15.482;2022-11-25T06:16:36;15.30;;;8.67;;
7495;SDS011;3789;47.064;15.482;2022-11-25T06:19:03;11.63;;;8.23;;
7495;SDS011;3789;47.064;15.482;2022-11-25T06:21:32;12.23;;;8.70;;
7495;SDS011;3789;47.064;15.482;2022-11-25T06:23:59;14.83;;;8.57;;
7495;SDS011;3789;47.064;15.482;2022-11-25T06:26:26;21.47;;;8.83;;
7495;SDS011;3789;47.064;15.482;2022-11-25T06:28:54;17.10;;;10.10;;
7495;SDS011;3789;47.064;15.482;2022-11-25T06:31:22;16.63;;;9.70;;
7495;SDS011;3789;47.064;15.482;2022-11-25T06:33:51;13.70;;;9.73;;
7495;SDS011;3789;47.064;15.482;2022-11-25T06:36:19;12.03;;;8.47;;
7495;SDS011;3789;47.064;15.482;2022-11-25T06:38:50;10.43;;;7.50;;
7495;SDS011;3789;47.064;15.482;2022-11-25T06:41:19;9.67;;;7.57;;
7495;SDS011;3789;47.064;15.482;2022-11-25T06:43:47;14.93;;;7.07;;
7495;SDS011;3789;47.064;15.482;2022-11-25T06:46:15;12.77;;;7.33;;
7495;SDS011;3789;47.064;15.482;2022-11-25T06:48:49;12.37;;;7.13;;
7495;SDS011;3789;47.064;15.482;2022-11-25T06:51:17;10.43;;;6.37;;
7495;SDS011;3789;47.064;15.482;2022-11-25T06:53:44;12.83;;;7.57;;
7495;SDS011;3789;47.064;15.482;2022-11-25T06:56:16;6.30;;;5.27;;
7495;SDS011;3789;47.064;15.482;2022-11-25T06:58:46;6.53;;;4.50;;
7495;SDS011;3789;47.064;15.482;2022-11-25T07:03:45;10.93;;;6.97;;
7495;SDS011;3789;47.064;15.482;2022-11-25T07:06:13;7.07;;;6.00;;
7495;SDS011;3789;47.064;15.482;2022-11-25T07:08:41;9.77;;;7.17;;
7495;SDS011;3789;47.064;15.482;2022-11-25T07:11:19;10.23;;;8.40;;
7495;SDS011;3789;47.064;15.482;2022-11-25T07:13:53;10.63;;;8.33;;
7495;SDS011;3789;47.064;15.482;2022-11-25T07:16:25;11.17;;;9.70;;
7495;SDS011;3789;47.064;15.482;2022-11-25T07:18:53;13.10;;;9.23;;
7495;SDS011;3789;47.064;15.482;2022-11-25T07:21:21;9.83;;;8.57;;
7495;SDS011;3789;47.064;15.482;2022-11-25T07:23:49;12.87;;;8.47;;
7495;SDS011;3789;47.064;15.482;2022-11-25T07:26:22;11.93;;;8.63;;
7495;SDS011;3789;47.064;15.482;2022-11-25T07:28:51;12.83;;;8.27;;
7495;SDS011;3789;47.064;15.482;2022-11-25T07:31:20;10.40;;;7.97;;
7495;SDS011;3789;47.064;15.482;2022-11-25T07:36:29;11.63;;;8.67;;
7495;SDS011;3789;47.064;15.482;2022-11-25T07:38:58;11.40;;;8.47;;
7495;SDS011;3789;47.064;15.482;2022-11-25T07:41:27;14.03;;;8.80;;
7495;SDS011;3789;47.064;15.482;2022-11-25T07:43:56;10.27;;;7.33;;
7495;SDS011;3789;47.064;15.482;2022-11-25T07:46:32;5.90;;;5.17;;
7495;SDS011;3789;47.064;15.482;2022-11-25T07:49:01;6.10;;;3.60;;
7495;SDS011;3789;47.064;15.482;2022-11-25T07:51:34;4.80;;;3.80;;
7495;SDS011;3789;47.064;15.482;2022-11-25T07:54:08;3.53;;;3.20;;
7495;SDS011;3789;47.064;15.482;2022-11-25T07:56:37;4.87;;;3.47;;
7495;SDS011;3789;47.064;15.482;2022-11-25T07:59:06;5.60;;;4.37;;
7495;SDS011;3789;47.064;15.482;2022-11-25T08:01:35;6.23;;;3.93;;
7495;SDS011;3789;47.064;15.482;2022-11-25T08:04:02;5.20;;;3.70;;
7495;SDS011;3789;47.064;15.482;2022-11-25T08:06:30;4.37;;;3.97;;
7495;SDS011;3789;47.064;15.482;2022-11-25T08:08:57;4.07;;;3.67;;
7495;SDS011;3789;47.064;15.482;2022-11-25T08:11:29;4.40;;;3.23;;
7495;SDS011;3789;47.064;15.482;2022-11-25T08:13:56;3.60;;;3.10;;
7495;SDS011;3789;47.064;15.482;2022-11-25T08:16:25;3.80;;;2.97;;
7495;SDS011;3789;47.064;15.482;2022-11-25T08:18:54;3.30;;;3.00;;
7495;SDS011;3789;47.064;15.482;2022-11-25T08:21:21;5.60;;;3.50;;
7495;SDS011;3789;47.064;15.482;2022-11-25T08:23:49;5.43;;;3.33;;
7495;SDS011;3789;47.064;15.482;2022-11-25T08:26:19;3.50;;;3.20;;
7495;SDS011;3789;47.064;15.482;2022-11-25T08:28:55;4.17;;;3.53;;
7495;SDS011;3789;47.064;15.482;2022-11-25T08:31:31;3.50;;;3.20;;
7495;SDS011;3789;47.064;15.482;2022-11-25T08:34:00;4.07;;;3.00;;
7495;SDS011;3789;47.064;15.482;2022-11-25T08:36:28;3.53;;;2.90;;
7495;SDS011;3789;47.064;15.482;2022-11-25T08:38:57;3.40;;;3.00;;
7495;SDS011;3789;47.064;15.482;2022-11-25T08:41:27;5.13;;;3.80;;
7495;SDS011;3789;47.064;15.482;2022-11-25T08:43:57;4.97;;;4.40;;
7495;SDS011;3789;47.064;15.482;2022-11-25T08:46:27;4.70;;;4.10;;
7495;SDS011;3789;47.064;15.482;2022-11-25T08:48:56;7.33;;;4.23;;
7495;SDS011;3789;47.064;15.482;2022-11-25T08:51:24;6.07;;;4.40;;
7495;SDS011;3789;47.064;15.482;2022-11-25T08:53:53;7.93;;;6.00;;
7495;SDS011;3789;47.064;15.482;2022-11-25T08:56:21;12.30;;;7.57;;
7495;SDS011;3789;47.064;15.482;2022-11-25T08:58:52;7.97;;;6.43;;
7495;SDS011;3789;47.064;15.482;2022-11-25T09:01:20;8.17;;;6.77;;
7495;SDS011;3789;47.064;15.482;2022-11-25T09:03:49;10.13;;;6.70;;
7495;SDS011;3789;47.064;15.482;2022-11-25T09:06:17;9.07;;;7.07;;
7495;SDS011;3789;47.064;15.482;2022-11-25T09:08:45;9.27;;;7.10;;
7495;SDS011;3789;47.064;15.482;2022-11-25T09:11:13;10.47;;;6.30;;
7495;SDS011;3789;47.064;15.482;2022-11-25T09:13:41;8.47;;;6.33;;
7495;SDS011;3789;47.064;15.482;2022-11-25T09:16:08;7.33;;;6.20;;
7495;SDS011;3789;47.064;15.482;2022-11-25T09:18:36;8.27;;;7.10;;
7495;SDS011;3789;47.064;15.482;2022-11-25T09:21:07;8.67;;;6.50;;
7495;SDS011;3789;47.064;15.482;2022-11-25T09:23:36;10.10;;;6.43;;
7495;SDS011;3789;47.064;15.482;2022-11-25T09:26:04;10.13;;;5.73;;
7495;SDS011;3789;47.064;15.482;2022-11-25T09:28:32;8.50;;;5.83;;
7495;SDS011;3789;47.064;15.482;2022-11-25T09:31:05;8.80;;;5.80;;
7495;SDS011;3789;47.064;15.482;2022-11-25T09:33:33;6.60;;;5.60;;
7495;SDS011;3789;47.064;15.482;2022-11-25T09:36:01;4.80;;;4.30;;
7495;SDS011;3789;47.064;15.482;2022-11-25T09:38:29;6.93;;;4.90;;
7495;SDS011;3789;47.064;15.482;2022-11-25T09:43:39;6.77;;;5.23;;
7495;SDS011;3789;47.064;15.482;2022-11-25T09:52:18;10.37;;;5.00;;
7495;SDS011;3789;47.064;15.482;2022-11-25T09:55:08;8.27;;;5.30;;
7495;SDS011;3789;47.064;15.482;2022-11-25T10:00:26;5.87;;;4.90;;
7495;SDS011;3789;47.064;15.482;2022-11-25T10:03:16;6.67;;;5.00;;
7495;SDS011;3789;47.064;15.482;2022-11-25T10:06:07;7.23;;;4.83;;
7495;SDS011;3789;47.064;15.482;2022-11-25T10:09:00;6.80;;;4.40;;
7495;SDS011;3789;47.064;15.482;2022-11-25T10:11:33;8.80;;;4.60;;
7495;SDS011;3789;47.064;15.482;2022-11-25T10:20:33;8.47;;;5.03;;
7495;SDS011;3789;47.064;15.482;2022-11-25T10:23:03;6.27;;;4.67;;
7495;SDS011;3789;47.064;15.482;2022-11-25T10:25:40;7.10;;;4.57;;
7495;SDS011;3789;47.064;15.482;2022-11-25T10:36:19;4.57;;;4.10;;
7495;SDS011;3789;47.064;15.482;2022-11-25T10:39:08;5.23;;;4.50;;
7495;SDS011;3789;47.064;15.482;2022-11-25T10:52:59;18.53;;;8.43;;
7495;SDS011;3789;47.064;15.482;2022-11-25T10:55:35;9.77;;;6.97;;
7495;SDS011;3789;47.064;15.482;2022-11-25T11:03:42;10.63;;;6.17;;
7495;SDS011;3789;47.064;15.482;2022-11-25T11:09:38;12.10;;;6.90;;
7495;SDS011;3789;47.064;15.482;2022-11-25T11:14:52;7.73;;;6.03;;
7495;SDS011;3789;47.064;15.482;2022-11-25T11:17:39;8.40;;;5.63;;
7495;SDS011;3789;47.064;15.482;2022-11-25T11:22:33;9.20;;;6.00;;
7495;SDS011;3789;47.064;15.482;2022-11-25T11:25:08;7.20;;;5.43;;
7495;SDS011;3789;47.064;15.482;2022-11-25T11:27:48;8.03;;;6.03;;
7495;SDS011;3789;47.064;15.482;2022-11-25T11:30:17;6.53;;;5.17;;
7495;SDS011;3789;47.064;15.482;2022-11-25T11:32:56;5.93;;;5.33;;
7495;SDS011;3789;47.064;15.482;2022-11-25T11:38:33;7.37;;;5.30;;
7495;SDS011;3789;47.064;15.482;2022-11-25T11:41:12;5.97;;;4.20;;
7495;SDS011;3789;47.064;15.482;2022-11-25T11:52:26;5.37;;;4.07;;
7495;SDS011;3789;47.064;15.482;2022-11-25T11:55:00;5.40;;;3.50;;
7495;SDS011;3789;47.064;15.482;2022-11-25T11:57:57;6.10;;;3.70;;
7495;SDS011;3789;47.064;15.482;2022-11-25T12:00:31;3.93;;;2.90;;
7495;SDS011;3789;47.064;15.482;2022-11-25T12:03:12;3.73;;;2.87;;
7495;SDS011;3789;47.064;15.482;2022-11-25T12:05:43;3.50;;;3.00;;
7495;SDS011;3789;47.064;15.482;2022-11-25T12:08:30;4.90;;;3.40;;
7495;SDS011;3789;47.064;15.482;2022-11-25T12:11:12;4.30;;;3.23;;
7495;SDS011;3789;47.064;15.482;2022-11-25T12:13:48;5.37;;;3.57;;
7495;SDS011;3789;47.064;15.482;2022-11-25T12:16:37;7.30;;;2.90;;
7495;SDS011;3789;47.064;15.482;2022-11-25T12:19:15;3.80;;;3.30;;
7495;SDS011;3789;47.064;15.482;2022-11-25T12:24:39;5.17;;;2.90;;
7495;SDS011;3789;47.064;15.482;2022-11-25T12:27:13;4.60;;;2.90;;
7495;SDS011;3789;47.064;15.482;2022-11-25T12:29:49;3.17;;;2.70;;
7495;SDS011;3789;47.064;15.482;2022-11-25T12:38:51;4.23;;;2.97;;
7495;SDS011;3789;47.064;15.482;2022-11-25T12:41:38;4.17;;;2.77;;
7495;SDS011;3789;47.064;15.482;2022-11-25T12:44:36;2.70;;;2.40;;
7495;SDS011;3789;47.064;15.482;2022-11-25T12:47:11;5.00;;;2.50;;
7495;SDS011;3789;47.064;15.482;2022-11-25T12:49:43;4.13;;;2.37;;
7495;SDS011;3789;47.064;15.482;2022-11-25T12:55:03;3.93;;;2.53;;
7495;SDS011;3789;47.064;15.482;2022-11-25T13:00:24;3.83;;;2.20;;
7495;SDS011;3789;47.064;15.482;2022-11-25T13:15:28;3.67;;;2.30;;
7495;SDS011;3789;47.064;15.482;2022-11-25T13:18:02;2.83;;;2.53;;
7495;SDS011;3789;47.064;15.482;2022-11-25T13:20:41;3.77;;;2.93;;
7495;SDS011;3789;47.064;15.482;2022-11-25T13:25:39;4.57;;;3.10;;
7495;SDS011;3789;47.064;15.482;2022-11-25T13:36:53;6.30;;;2.73;;
7495;SDS011;3789;47.064;15.482;2022-11-25T13:41:57;3.50;;;2.40;;
7495;SDS011;3789;47.064;15.482;2022-11-25T13:44:48;3.00;;;2.33;;
7495;SDS011;3789;47.064;15.482;2022-11-25T13:47:30;3.50;;;2.43;;
7495;SDS011;3789;47.064;15.482;2022-11-25T13:50:05;2.50;;;2.00;;
7495;SDS011;3789;47.064;15.482;2022-11-25T13:52:42;10.40;;;6.23;;
7495;SDS011;3789;47.064;15.482;2022-11-25T13:55:32;5.60;;;4.20;;
7495;SDS011;3789;47.064;15.482;2022-11-25T13:58:13;15.63;;;7.97;;
7495;SDS011;3789;47.064;15.482;2022-11-25T14:01:03;15.47;;;7.60;;
7495;SDS011;3789;47.064;15.482;2022-11-25T14:03:52;7.10;;;4.43;;
7495;SDS011;3789;47.064;15.482;2022-11-25T14:08:54;14.50;;;7.70;;
7495;SDS011;3789;47.064;15.482;2022-11-25T14:17:13;6.63;;;3.73;;
7495;SDS011;3789;47.064;15.482;2022-11-25T14:25:15;6.07;;;3.50;;
7495;SDS011;3789;47.064;15.482;2022-11-25T14:27:49;4.77;;;3.67;;
7495;SDS011;3789;47.064;15.482;2022-11-25T14:30:28;4.00;;;3.10;;
7495;SDS011;3789;47.064;15.482;2022-11-25T14:33:03;3.73;;;3.17;;
7495;SDS011;3789;47.064;15.482;2022-11-25T14:35:39;4.33;;;3.00;;
7495;SDS011;3789;47.064;15.482;2022-11-25T14:38:13;3.30;;;3.00;;
7495;SDS011;3789;47.064;15.482;2022-11-25T14:40:57;3.73;;;3.13;;
7495;SDS011;3789;47.064;15.482;2022-11-25T14:43:29;6.00;;;4.07;;
7495;SDS011;3789;47.064;15.482;2022-11-25T14:46:12;5.57;;;3.87;;
7495;SDS011;3789;47.064;15.482;2022-11-25T14:48:41;7.83;;;4.47;;
7495;SDS011;3789;47.064;15.482;2022-11-25T14:51:10;6.40;;;4.10;;
7495;SDS011;3789;47.064;15.482;2022-11-25T14:53:42;7.20;;;5.33;;
7495;SDS011;3789;47.064;15.482;2022-11-25T14:56:20;6.70;;;4.67;;
7495;SDS011;3789;47.064;15.482;2022-11-25T14:59:01;7.77;;;4.37;;
7495;SDS011;3789;47.064;15.482;2022-11-25T15:01:52;6.20;;;4.20;;
7495;SDS011;3789;47.064;15.482;2022-11-25T15:04:24;5.10;;;4.60;;
7495;SDS011;3789;47.064;15.482;2022-11-25T15:07:13;5.30;;;3.93;;
7495;SDS011;3789;47.064;15.482;2022-11-25T15:09:58;4.20;;;3.67;;
7495;SDS011;3789;47.064;15.482;2022-11-25T15:12:29;4.43;;;4.03;;
7495;SDS011;3789;47.064;15.482;2022-11-25T15:15:04;6.00;;;4.47;;
7495;SDS011;3789;47.064;15.482;2022-11-25T15:17:33;4.73;;;4.20;;
7495;SDS011;3789;47.064;15.482;2022-11-25T15:20:15;5.70;;;4.43;;
7495;SDS011;3789;47.064;15.482;2022-11-25T15:22:46;4.77;;;4.37;;
7495;SDS011;3789;47.064;15.482;2022-11-25T15:25:17;5.23;;;4.20;;
7495;SDS011;3789;47.064;15.482;2022-11-25T15:27:50;5.37;;;4.20;;
7495;SDS011;3789;47.064;15.482;2022-11-25T15:30:21;4.40;;;4.00;;
7495;SDS011;3789;47.064;15.482;2022-11-25T15:32:59;4.87;;;3.67;;
7495;SDS011;3789;47.064;15.482;2022-11-25T15:35:37;5.27;;;3.97;;
7495;SDS011;3789;47.064;15.482;2022-11-25T15:38:45;6.70;;;5.37;;
7495;SDS011;3789;47.064;15.482;2022-11-25T15:41:19;8.03;;;4.93;;
7495;SDS011;3789;47.064;15.482;2022-11-25T15:44:03;7.70;;;5.27;;
7495;SDS011;3789;47.064;15.482;2022-11-25T15:46:37;5.37;;;4.83;;
7495;SDS011;3789;47.064;15.482;2022-11-25T15:49:05;7.57;;;4.80;;
7495;SDS011;3789;47.064;15.482;2022-11-25T15:54:47;6.23;;;4.73;;
7495;SDS011;3789;47.064;15.482;2022-11-25T15:57:31;6.80;;;4.80;;
7495;SDS011;3789;47.064;15.482;2022-11-25T16:00:15;6.65;;;5.28;;
7495;SDS011;3789;47.064;15.482;2022-11-25T16:02:52;8.73;;;5.03;;
7495;SDS011;3789;47.064;15.482;2022-11-25T16:05:57;5.53;;;4.80;;
7495;SDS011;3789;47.064;15.482;2022-11-25T16:08:35;7.97;;;5.60;;
7495;SDS011;3789;47.064;15.482;2022-11-25T16:12:02;5.67;;;4.73;;
7495;SDS011;3789;47.064;15.482;2022-11-25T16:14:45;7.27;;;4.37;;
7495;SDS011;3789;47.064;15.482;2022-11-25T16:17:13;5.43;;;4.80;;
7495;SDS011;3789;47.064;15.482;2022-11-25T16:19:44;5.07;;;4.07;;
7495;SDS011;3789;47.064;15.482;2022-11-25T16:22:17;5.60;;;4.53;;
7495;SDS011;3789;47.064;15.482;2022-11-25T16:24:51;6.33;;;4.67;;
7495;SDS011;3789;47.064;15.482;2022-11-25T16:27:31;4.43;;;4.00;;
7495;SDS011;3789;47.064;15.482;2022-11-25T16:30:18;6.97;;;4.23;;
7495;SDS011;3789;47.064;15.482;2022-11-25T16:32:50;7.23;;;4.77;;
7495;SDS011;3789;47.064;15.482;2022-11-25T16:35:29;8.10;;;5.80;;
7495;SDS011;3789;47.064;15.482;2022-11-25T16:37:58;6.23;;;5.63;;
7495;SDS011;3789;47.064;15.482;2022-11-25T16:40:28;7.90;;;5.43;;
7495;SDS011;3789;47.064;15.482;2022-11-25T16:42:57;6.30;;;5.67;;
7495;SDS011;3789;47.064;15.482;2022-11-25T16:45:26;8.50;;;5.90;;
7495;SDS011;3789;47.064;15.482;2022-11-25T16:47:59;6.90;;;5.87;;
7495;SDS011;3789;47.064;15.482;2022-11-25T16:50:30;7.33;;;5.57;;
7495;SDS011;3789;47.064;15.482;2022-11-25T16:52:59;7.87;;;5.90;;
7495;SDS011;3789;47.064;15.482;2022-11-25T16:55:29;6.43;;;5.40;;
7495;SDS011;3789;47.064;15.482;2022-11-25T16:58:04;8.80;;;5.83;;
7495;SDS011;3789;47.064;15.482;2022-11-25T17:00:48;9.80;;;5.87;;
7495;SDS011;3789;47.064;15.482;2022-11-25T17:03:30;6.67;;;5.30;;
7495;SDS011;3789;47.064;15.482;2022-11-25T17:06:26;8.57;;;5.50;;
7495;SDS011;3789;47.064;15.482;2022-11-25T17:08:57;7.73;;;5.30;;
7495;SDS011;3789;47.064;15.482;2022-11-25T17:11:31;8.47;;;5.83;;
7495;SDS011;3789;47.064;15.482;2022-11-25T17:14:16;6.80;;;6.00;;
7495;SDS011;3789;47.064;15.482;2022-11-25T17:17:08;7.73;;;4.90;;
7495;SDS011;3789;47.064;15.482;2022-11-25T17:19:52;8.60;;;5.90;;
7495;SDS011;3789;47.064;15.482;2022-11-25T17:22:27;7.60;;;5.17;;
7495;SDS011;3789;47.064;15.482;2022-11-25T17:25:04;6.63;;;4.80;;
7495;SDS011;3789;47.064;15.482;2022-11-25T17:27:35;6.50;;;5.20;;
7495;SDS011;3789;47.064;15.482;2022-11-25T17:30:05;7.87;;;5.37;;
7495;SDS011;3789;47.064;15.482;2022-11-25T17:32:43;6.30;;;4.37;;
7495;SDS011;3789;47.064;15.482;2022-11-25T17:35:18;5.97;;;4.90;;
7495;SDS011;3789;47.064;15.482;2022-11-25T17:37:47;8.17;;;4.70;;
7495;SDS011;3789;47.064;15.482;2022-11-25T17:40:16;6.83;;;4.93;;
7495;SDS011;3789;47.064;15.482;2022-11-25T17:42:45;8.33;;;6.17;;
7495;SDS011;3789;47.064;15.482;2022-11-25T17:45:20;5.73;;;5.10;;
7495;SDS011;3789;47.064;15.482;2022-11-25T17:47:47;6.77;;;5.90;;
7495;SDS011;3789;47.064;15.482;2022-11-25T17:52:49;7.60;;;6.77;;
7495;SDS011;3789;47.064;15.482;2022-11-25T17:55:28;6.83;;;5.37;;